Time;durP1;ratioP1;P1;durP2;ratioP2;P2;SDS_P1;SDS_P2;PMS_P1;PMS_P2;Temp;Humidity;BMP_temperature;BMP_pressure;BME280_temperature;BME280_humidity;BME280_pressure;Samples;Min_cycle;Max_cycle;Signal;HPM_P1;HPM_P2
2023/10/30 00:01:48;;;;;;;4.03;1.48;;;6.30;99.90;;;;;;5033288;28;20025;-74
2023/10/30 00:04:14;;;;;;;2.83;1.50;;;6.30;99.90;;;;;;5034579;28;20448;-75
2023/10/30 00:06:40;;;;;;;2.00;1.30;;;6.20;99.90;;;;;;5034489;28;20107;-75
2023/10/30 00:09:06;;;;;;;3.83;1.02;;;6.30;99.90;;;;;;5034494;28;20053;-75
2023/10/30 00:11:31;;;;;;;2.15;1.20;;;6.20;99.90;;;;;;5034288;28;20111;-74
2023/10/30 00:13:57;;;;;;;6.57;3.65;;;6.20;99.90;;;;;;5034714;28;20036;-75
2023/10/30 00:16:23;;;;;;;7.22;3.67;;;6.20;99.90;;;;;;5034352;28;20021;-74
2023/10/30 00:18:49;;;;;;;4.40;1.95;;;6.20;99.90;;;;;;5034319;28;20567;-75
2023/10/30 00:21:15;;;;;;;4.28;1.60;;;6.10;99.90;;;;;;5034258;28;20156;-74
2023/10/30 00:23:41;;;;;;;3.72;1.52;;;6.10;99.90;;;;;;5034275;28;20053;-75
2023/10/30 00:26:07;;;;;;;6.80;2.83;;;6.10;99.90;;;;;;5034529;28;20493;-75
2023/10/30 00:28:34;;;;;;;10.35;4.38;;;6.10;99.90;;;;;;5032866;28;20075;-75
2023/10/30 00:31:00;;;;;;;12.13;3.92;;;6.00;99.90;;;;;;5034050;28;20084;-74
2023/10/30 00:33:26;;;;;;;7.97;3.63;;;6.00;99.90;;;;;;5034143;28;20075;-75
2023/10/30 00:35:52;;;;;;;6.63;2.97;;;6.00;99.90;;;;;;5034041;28;20021;-75
2023/10/30 00:38:17;;;;;;;3.35;1.33;;;6.00;99.90;;;;;;5033348;28;20029;-74
2023/10/30 00:40:43;;;;;;;3.00;1.60;;;6.00;99.90;;;;;;5033888;28;20025;-75
2023/10/30 00:43:10;;;;;;;3.35;1.30;;;5.90;99.90;;;;;;5034394;28;20049;-75
2023/10/30 00:45:35;;;;;;;2.05;1.20;;;5.90;99.90;;;;;;5034231;28;20033;-75
2023/10/30 00:48:01;;;;;;;2.22;1.25;;;5.90;99.90;;;;;;5033841;28;20030;-74
2023/10/30 00:50:27;;;;;;;1.75;0.75;;;5.90;99.90;;;;;;5032508;28;20040;-74
2023/10/30 00:52:52;;;;;;;2.25;1.08;;;5.90;99.90;;;;;;5033841;28;20585;-74
2023/10/30 00:55:18;;;;;;;4.70;1.00;;;5.90;99.90;;;;;;5033729;28;20032;-75
2023/10/30 00:57:44;;;;;;;1.98;1.00;;;5.90;99.90;;;;;;5033630;28;20032;-75
2023/10/30 01:00:10;;;;;;;3.08;1.10;;;5.90;99.90;;;;;;5032985;28;20026;-73
2023/10/30 01:02:36;;;;;;;2.28;1.20;;;5.90;99.90;;;;;;5033662;28;20036;-74
2023/10/30 01:05:02;;;;;;;1.73;0.95;;;5.80;99.90;;;;;;5033636;28;20033;-73
2023/10/30 01:07:28;;;;;;;1.70;1.00;;;5.80;99.90;;;;;;5033617;28;20051;-74
2023/10/30 01:09:53;;;;;;;2.47;1.00;;;5.80;99.90;;;;;;5032997;28;20494;-75
2023/10/30 01:12:19;;;;;;;2.80;1.17;;;5.70;99.90;;;;;;5034168;28;20032;-75
2023/10/30 01:14:45;;;;;;;1.67;0.98;;;5.70;99.90;;;;;;5032806;28;20121;-73
2023/10/30 01:17:11;;;;;;;1.80;0.85;;;5.70;99.90;;;;;;5033560;28;20108;-73
2023/10/30 01:19:36;;;;;;;1.73;1.00;;;5.70;99.90;;;;;;5032418;28;20042;-73
2023/10/30 01:22:02;;;;;;;3.13;0.95;;;5.70;99.90;;;;;;5032220;28;20030;-73
2023/10/30 01:24:28;;;;;;;3.13;1.27;;;5.70;99.90;;;;;;5033413;28;20033;-73
2023/10/30 01:26:53;;;;;;;3.45;1.00;;;5.70;99.90;;;;;;5032392;28;20029;-73
2023/10/30 01:29:19;;;;;;;2.70;1.40;;;5.80;99.90;;;;;;5033882;28;20057;-73
2023/10/30 01:31:45;;;;;;;2.03;1.10;;;5.70;99.90;;;;;;5033413;28;20022;-73
2023/10/30 01:34:11;;;;;;;2.55;1.08;;;5.60;99.90;;;;;;5033390;28;20030;-73
2023/10/30 01:36:36;;;;;;;2.00;0.98;;;5.60;99.90;;;;;;5033427;28;20026;-73
2023/10/30 01:39:02;;;;;;;2.35;1.00;;;5.50;99.90;;;;;;5033610;28;20026;-73
2023/10/30 01:41:28;;;;;;;3.22;1.20;;;5.50;99.90;;;;;;5033460;28;20037;-73
2023/10/30 01:43:54;;;;;;;2.33;1.30;;;5.50;99.90;;;;;;5032290;28;20030;-73
2023/10/30 01:46:20;;;;;;;2.53;1.27;;;5.50;99.90;;;;;;5033516;28;20439;-73
2023/10/30 01:48:47;;;;;;;3.42;1.23;;;5.60;99.90;;;;;;5033345;28;20033;-73
2023/10/30 01:51:16;;;;;;;2.53;1.13;;;5.60;99.90;;;;;;5033063;28;20026;-73
2023/10/30 01:53:43;;;;;;;2.80;1.10;;;5.60;99.90;;;;;;5033160;28;20022;-73
2023/10/30 01:56:10;;;;;;;2.88;0.90;;;5.70;99.90;;;;;;5033636;28;20029;-73
2023/10/30 01:58:36;;;;;;;1.85;0.88;;;5.70;99.90;;;;;;5033880;28;20084;-73
2023/10/30 02:01:02;;;;;;;3.53;0.70;;;5.70;99.90;;;;;;5035201;28;20038;-73
2023/10/30 02:03:28;;;;;;;1.75;1.00;;;5.70;99.90;;;;;;5035517;28;20036;-73
2023/10/30 02:05:54;;;;;;;1.73;0.98;;;5.70;99.90;;;;;;5035279;28;20423;-72
2023/10/30 02:08:20;;;;;;;2.10;0.93;;;5.70;99.90;;;;;;5035215;28;20406;-73
2023/10/30 02:10:46;;;;;;;1.40;0.90;;;5.70;99.90;;;;;;5036681;28;20371;-73
2023/10/30 02:13:11;;;;;;;2.58;1.02;;;5.70;99.90;;;;;;5034294;28;20040;-73
2023/10/30 02:15:37;;;;;;;3.35;1.00;;;5.80;99.90;;;;;;5033095;28;20022;-73
2023/10/30 02:18:03;;;;;;;1.58;0.80;;;5.80;99.90;;;;;;5033124;28;20060;-73
2023/10/30 02:20:30;;;;;;;2.97;0.80;;;5.70;99.90;;;;;;5033069;28;20030;-73
2023/10/30 02:22:55;;;;;;;2.25;0.85;;;5.70;99.90;;;;;;5036165;28;20036;-73
2023/10/30 02:25:22;;;;;;;2.20;0.88;;;5.70;99.90;;;;;;5036758;28;20030;-73
2023/10/30 02:27:57;;;;;;;1.58;1.00;;;5.70;99.90;;;;;;5036653;28;20406;-73
2023/10/30 02:30:25;;;;;;;4.10;1.15;;;5.70;99.90;;;;;;5035389;28;20413;-73
2023/10/30 02:32:51;;;;;;;1.40;0.70;;;5.70;99.90;;;;;;5036267;28;20022;-73
2023/10/30 02:35:17;;;;;;;2.28;1.10;;;5.60;99.90;;;;;;5036370;28;20030;-73
2023/10/30 02:37:46;;;;;;;2.42;1.00;;;5.60;99.90;;;;;;5036279;28;20021;-73
2023/10/30 02:40:13;;;;;;;2.13;1.10;;;5.60;99.90;;;;;;5036260;28;20022;-73
2023/10/30 02:42:40;;;;;;;4.07;1.40;;;5.50;99.90;;;;;;5035002;28;20027;-73
2023/10/30 02:45:06;;;;;;;2.30;0.98;;;5.50;99.90;;;;;;5036574;28;20034;-73
2023/10/30 02:47:33;;;;;;;2.25;1.08;;;5.50;99.90;;;;;;5035176;28;20466;-73
2023/10/30 02:49:59;;;;;;;1.98;0.90;;;5.50;99.90;;;;;;5035987;28;20474;-73
2023/10/30 02:52:24;;;;;;;2.08;0.88;;;5.60;99.90;;;;;;5036049;28;20038;-73
2023/10/30 02:54:50;;;;;;;2.55;0.80;;;5.60;99.90;;;;;;5034987;28;20071;-73
2023/10/30 02:57:16;;;;;;;2.28;1.02;;;5.60;99.90;;;;;;5035782;28;20026;-73
2023/10/30 02:59:42;;;;;;;2.20;0.90;;;5.50;99.90;;;;;;5035970;28;20044;-73
2023/10/30 03:02:08;;;;;;;4.07;1.20;;;5.50;99.90;;;;;;5034516;28;20037;-73
2023/10/30 03:04:34;;;;;;;2.20;1.10;;;5.50;99.90;;;;;;5036381;28;20573;-73
2023/10/30 03:07:00;;;;;;;2.92;1.55;;;5.50;99.90;;;;;;5036758;28;20033;-73
2023/10/30 03:09:28;;;;;;;6.38;1.50;;;5.50;99.90;;;;;;5035706;28;20116;-73
2023/10/30 03:11:54;;;;;;;3.65;1.48;;;5.50;99.90;;;;;;5034477;28;20410;-73
2023/10/30 03:14:20;;;;;;;6.28;2.50;;;5.50;99.90;;;;;;5035558;28;20032;-73
2023/10/30 03:16:46;;;;;;;7.53;3.30;;;5.50;99.90;;;;;;5035487;28;20017;-73
2023/10/30 03:19:12;;;;;;;4.80;2.28;;;5.50;99.90;;;;;;5034279;28;20029;-73
2023/10/30 03:21:37;;;;;;;3.47;1.65;;;5.50;99.90;;;;;;5035404;28;20035;-73
2023/10/30 03:24:03;;;;;;;4.20;1.50;;;5.50;99.90;;;;;;5035585;28;20044;-73
2023/10/30 03:26:29;;;;;;;3.28;1.10;;;5.50;99.90;;;;;;5034207;28;20080;-73
2023/10/30 03:28:55;;;;;;;2.17;1.02;;;5.50;99.90;;;;;;5035596;28;20033;-73
2023/10/30 03:31:21;;;;;;;1.77;0.77;;;5.50;99.90;;;;;;5034061;28;20135;-73
2023/10/30 03:33:47;;;;;;;2.45;1.30;;;5.50;99.90;;;;;;5034019;28;20079;-73
2023/10/30 03:36:20;;;;;;;3.53;1.25;;;5.50;99.90;;;;;;5035737;28;20021;-73
2023/10/30 03:38:45;;;;;;;1.55;0.90;;;5.40;99.90;;;;;;5035129;28;20026;-73
2023/10/30 03:41:11;;;;;;;1.80;1.00;;;5.40;99.90;;;;;;5034900;28;20033;-73
2023/10/30 03:43:36;;;;;;;2.08;0.90;;;5.40;99.90;;;;;;5033870;28;20120;-73
2023/10/30 03:46:04;;;;;;;1.63;0.88;;;5.40;99.90;;;;;;5035179;28;20060;-73
2023/10/30 03:48:30;;;;;;;1.92;0.90;;;5.40;99.90;;;;;;5034991;28;20133;-73
2023/10/30 03:50:55;;;;;;;2.53;1.33;;;5.40;99.90;;;;;;5033549;28;20108;-72
2023/10/30 03:53:21;;;;;;;2.35;1.17;;;5.40;99.90;;;;;;5035152;28;20065;-73
2023/10/30 03:55:47;;;;;;;2.17;1.02;;;5.40;99.90;;;;;;5035352;28;20017;-72
2023/10/30 03:58:12;;;;;;;2.97;1.20;;;5.40;99.90;;;;;;5034808;28;20037;-73
2023/10/30 04:00:38;;;;;;;1.58;1.00;;;5.40;99.90;;;;;;5033376;28;20033;-73
2023/10/30 04:03:04;;;;;;;2.45;1.30;;;5.40;99.90;;;;;;5034737;28;20083;-73
2023/10/30 04:05:30;;;;;;;3.15;1.60;;;5.40;99.90;;;;;;5034547;28;20036;-73
2023/10/30 04:07:55;;;;;;;2.70;1.70;;;5.40;99.90;;;;;;5034608;28;20036;-73
2023/10/30 04:10:21;;;;;;;4.93;2.47;;;5.40;99.90;;;;;;5034365;28;20030;-73
2023/10/30 04:12:47;;;;;;;3.75;2.28;;;5.40;99.90;;;;;;5016915;28;20032;-73
2023/10/30 04:15:15;;;;;;;5.28;1.85;;;5.40;99.90;;;;;;5033723;28;20363;-73
2023/10/30 04:17:40;;;;;;;3.50;1.50;;;5.40;99.90;;;;;;5034540;28;20069;-73
2023/10/30 04:20:06;;;;;;;2.80;1.50;;;5.40;99.90;;;;;;5034285;28;20382;-73
2023/10/30 04:22:32;;;;;;;2.13;1.27;;;5.50;99.90;;;;;;5034255;28;20032;-72
2023/10/30 04:24:58;;;;;;;2.08;1.02;;;5.50;99.90;;;;;;5034314;28;20446;-73
2023/10/30 04:27:23;;;;;;;3.47;0.98;;;5.50;99.90;;;;;;5034224;28;20040;-73
2023/10/30 04:29:49;;;;;;;3.85;1.10;;;5.50;99.90;;;;;;5032751;28;20034;-73
2023/10/30 04:32:15;;;;;;;2.10;1.20;;;5.50;99.90;;;;;;5033366;28;20026;-72
2023/10/30 04:34:40;;;;;;;2.53;1.30;;;5.50;99.90;;;;;;5032821;28;20041;-72
2023/10/30 04:37:07;;;;;;;3.58;1.70;;;5.50;99.90;;;;;;5033082;28;20021;-73
2023/10/30 04:39:33;;;;;;;5.88;3.25;;;5.50;99.90;;;;;;5033796;28;20105;-72
2023/10/30 04:41:59;;;;;;;3.58;2.25;;;5.40;99.90;;;;;;5033844;28;20105;-73
2023/10/30 04:44:24;;;;;;;5.35;2.20;;;5.40;99.90;;;;;;5033153;28;20101;-73
2023/10/30 04:46:50;;;;;;;6.72;1.90;;;5.40;99.90;;;;;;5033777;28;20028;-72
2023/10/30 04:49:16;;;;;;;2.33;1.40;;;5.40;99.90;;;;;;5033714;28;20029;-73
2023/10/30 04:51:42;;;;;;;4.68;1.40;;;5.40;99.90;;;;;;5032318;28;20128;-73
2023/10/30 04:54:07;;;;;;;2.00;1.20;;;5.40;99.90;;;;;;5033652;28;20101;-73
2023/10/30 04:56:33;;;;;;;2.33;1.30;;;5.40;99.90;;;;;;5033625;28;20052;-73
2023/10/30 04:58:58;;;;;;;4.88;1.40;;;5.40;99.90;;;;;;5033512;28;20034;-73
2023/10/30 05:01:24;;;;;;;2.88;1.73;;;5.30;99.90;;;;;;5033463;28;20068;-73
2023/10/30 05:03:50;;;;;;;4.28;1.38;;;5.30;99.90;;;;;;5033502;28;20109;-73
2023/10/30 05:06:16;;;;;;;4.07;1.30;;;5.30;99.90;;;;;;5015878;28;20041;-73
2023/10/30 05:08:41;;;;;;;3.55;1.30;;;5.30;99.90;;;;;;5032200;28;20040;-73
2023/10/30 05:11:07;;;;;;;2.10;1.20;;;5.30;99.90;;;;;;5033275;28;20029;-73
2023/10/30 05:13:34;;;;;;;8.48;4.85;;;5.30;99.90;;;;;;5033380;28;20474;-73
2023/10/30 05:16:00;;;;;;;7.07;4.65;;;5.40;99.90;;;;;;5033662;28;20088;-73
2023/10/30 05:18:28;;;;;;;6.88;4.63;;;5.40;99.90;;;;;;5032527;28;20025;-73
2023/10/30 05:20:54;;;;;;;4.55;2.80;;;5.40;99.90;;;;;;5033300;28;20022;-73
2023/10/30 05:23:20;;;;;;;2.72;1.60;;;5.40;99.90;;;;;;5033405;28;20041;-73
2023/10/30 05:25:45;;;;;;;3.25;1.75;;;5.40;99.90;;;;;;5033331;28;20033;-72
2023/10/30 05:28:11;;;;;;;2.35;1.20;;;5.50;99.90;;;;;;5033277;28;20401;-73
2023/10/30 05:30:37;;;;;;;2.35;1.33;;;5.50;99.90;;;;;;5033280;28;20170;-73
2023/10/30 05:33:03;;;;;;;4.82;2.35;;;5.50;99.90;;;;;;5033257;28;20167;-73
2023/10/30 05:35:30;;;;;;;3.35;2.15;;;5.50;99.90;;;;;;5033468;28;20033;-73
2023/10/30 05:37:56;;;;;;;6.15;2.65;;;5.50;99.90;;;;;;5032025;28;20112;-73
2023/10/30 05:40:22;;;;;;;6.05;4.00;;;5.50;99.90;;;;;;5033259;28;20049;-73
2023/10/30 05:42:48;;;;;;;7.95;3.65;;;5.50;99.90;;;;;;5033317;28;20478;-73
2023/10/30 05:45:14;;;;;;;4.47;2.90;;;5.60;99.90;;;;;;5033074;28;20026;-73
2023/10/30 05:47:39;;;;;;;5.35;3.53;;;5.60;99.90;;;;;;5033341;28;20025;-73
2023/10/30 05:50:06;;;;;;;5.00;2.97;;;5.50;99.90;;;;;;5032942;28;20389;-73
2023/10/30 05:52:32;;;;;;;6.88;3.05;;;5.60;99.90;;;;;;5033055;28;20371;-73
2023/10/30 05:54:57;;;;;;;4.95;3.15;;;5.50;99.90;;;;;;5033589;28;20032;-73
2023/10/30 05:57:23;;;;;;;4.15;2.97;;;5.50;99.90;;;;;;5036789;28;20022;-73
2023/10/30 05:59:49;;;;;;;6.03;3.58;;;5.50;99.90;;;;;;5035788;28;20037;-73
2023/10/30 06:02:15;;;;;;;6.60;3.78;;;5.50;99.90;;;;;;5036753;28;20026;-73
2023/10/30 06:04:41;;;;;;;8.93;4.22;;;5.40;99.90;;;;;;5036769;28;20025;-73
2023/10/30 06:07:07;;;;;;;7.22;3.17;;;5.40;99.90;;;;;;5036988;28;20037;-73
2023/10/30 06:09:33;;;;;;;6.20;3.28;;;5.40;99.90;;;;;;5036609;28;20048;-73
2023/10/30 06:11:59;;;;;;;109.30;22.85;;;5.30;99.90;;;;;;5036961;28;20054;-73
2023/10/30 06:14:25;;;;;;;56.22;16.92;;;5.30;99.90;;;;;;5036894;28;20025;-73
2023/10/30 06:16:50;;;;;;;52.50;14.25;;;5.30;99.90;;;;;;5036708;28;20057;-73
2023/10/30 06:19:16;;;;;;;39.45;11.93;;;5.20;99.90;;;;;;5036447;28;20026;-73
2023/10/30 06:21:45;;;;;;;23.23;9.23;;;5.20;99.90;;;;;;5036390;28;20036;-73
2023/10/30 06:24:11;;;;;;;5.90;2.70;;;5.30;99.90;;;;;;5036373;28;20025;-73
2023/10/30 06:26:43;;;;;;;4.35;2.20;;;5.30;99.90;;;;;;5035022;28;20032;-73
2023/10/30 06:29:09;;;;;;;4.03;2.22;;;5.30;99.90;;;;;;5036318;28;20025;-73
2023/10/30 06:31:35;;;;;;;6.60;2.80;;;5.40;99.90;;;;;;5036218;28;20512;-73
2023/10/30 06:34:01;;;;;;;14.18;4.72;;;5.40;99.90;;;;;;5036465;28;20024;-73
2023/10/30 06:36:27;;;;;;;79.32;18.70;;;5.40;99.90;;;;;;5036135;28;20071;-73
2023/10/30 06:38:55;;;;;;;83.80;19.45;;;5.30;99.90;;;;;;5036138;28;20022;-73
2023/10/30 06:41:20;;;;;;;58.05;16.00;;;5.30;99.90;;;;;;5036014;28;20084;-73
2023/10/30 06:43:46;;;;;;;18.05;5.93;;;5.30;99.90;;;;;;5035189;28;20025;-73
2023/10/30 06:46:12;;;;;;;14.52;5.05;;;5.30;99.90;;;;;;5034788;28;20029;-73
2023/10/30 06:48:37;;;;;;;30.55;12.30;;;5.20;99.90;;;;;;5035905;28;20071;-73
2023/10/30 06:51:03;;;;;;;29.15;14.23;;;5.20;99.90;;;;;;5035249;28;20057;-73
2023/10/30 06:53:29;;;;;;;23.08;12.20;;;5.20;99.90;;;;;;5035911;28;20032;-73
2023/10/30 06:55:54;;;;;;;19.45;10.73;;;5.30;99.90;;;;;;5035837;28;20101;-73
2023/10/30 06:58:23;;;;;;;18.40;6.63;;;5.30;99.90;;;;;;5034657;28;20100;-73
2023/10/30 07:00:49;;;;;;;39.58;10.40;;;5.30;99.90;;;;;;5035911;28;20033;-73
2023/10/30 07:03:15;;;;;;;32.35;9.63;;;5.40;99.90;;;;;;5035672;28;20390;-73
2023/10/30 07:05:42;;;;;;;24.90;7.97;;;5.50;99.90;;;;;;5031633;28;20029;-72
2023/10/30 07:08:08;;;;;;;9.27;3.90;;;5.50;99.90;;;;;;5035562;28;20083;-73
2023/10/30 07:10:34;;;;;;;6.82;3.40;;;5.70;99.90;;;;;;5038113;28;20048;-73
2023/10/30 07:12:59;;;;;;;12.93;4.95;;;5.70;99.90;;;;;;5035460;28;20534;-73
2023/10/30 07:15:26;;;;;;;12.25;4.93;;;5.80;99.90;;;;;;5035681;28;20033;-73
2023/10/30 07:17:56;;;;;;;9.57;3.90;;;5.90;99.90;;;;;;5036046;28;20117;-73
2023/10/30 07:20:22;;;;;;;5.15;2.63;;;6.00;99.90;;;;;;5035524;28;20033;-74
2023/10/30 07:22:48;;;;;;;4.47;2.60;;;6.00;99.90;;;;;;5028252;28;20041;-73
2023/10/30 07:25:14;;;;;;;10.65;6.18;;;6.10;99.90;;;;;;5014519;28;20038;-73
2023/10/30 07:27:39;;;;;;;9.23;5.03;;;6.10;99.90;;;;;;5015467;28;20026;-74
2023/10/30 07:30:06;;;;;;;7.55;4.00;;;6.20;99.90;;;;;;5015252;28;20030;-74
2023/10/30 07:32:31;;;;;;;6.82;4.18;;;6.20;99.90;;;;;;5015273;28;20164;-73
2023/10/30 07:34:57;;;;;;;6.60;3.95;;;6.20;99.90;;;;;;5015278;28;20060;-74
2023/10/30 07:37:23;;;;;;;7.38;3.95;;;6.30;99.90;;;;;;5015494;28;20022;-74
2023/10/30 07:39:48;;;;;;;5.82;3.72;;;6.30;99.90;;;;;;5015126;28;20033;-74
2023/10/30 07:42:14;;;;;;;8.60;4.10;;;6.40;99.90;;;;;;5015082;28;20032;-74
2023/10/30 07:44:40;;;;;;;5.22;3.10;;;6.40;99.90;;;;;;5015336;28;20061;-75
2023/10/30 07:47:05;;;;;;;7.72;4.03;;;6.50;99.90;;;;;;5015157;28;20032;-75
2023/10/30 07:49:31;;;;;;;8.00;4.22;;;6.60;99.90;;;;;;4997967;28;20042;-73
2023/10/30 07:51:57;;;;;;;7.88;3.63;;;6.60;99.90;;;;;;5013848;28;20435;-74
2023/10/30 07:54:23;;;;;;;7.30;4.25;;;6.70;99.90;;;;;;5013857;28;20102;-74
2023/10/30 07:56:49;;;;;;;7.18;3.80;;;6.80;99.90;;;;;;5014917;28;20026;-74
2023/10/30 07:59:14;;;;;;;6.85;4.07;;;6.90;99.90;;;;;;5014864;28;20053;-74
2023/10/30 08:01:40;;;;;;;8.70;5.22;;;6.90;99.90;;;;;;5015255;28;20025;-74
2023/10/30 08:04:09;;;;;;;9.77;4.50;;;7.10;99.90;;;;;;5013615;28;20529;-74
2023/10/30 08:06:35;;;;;;;9.30;4.53;;;7.10;99.90;;;;;;5014921;28;20026;-74
2023/10/30 08:09:01;;;;;;;8.95;4.05;;;7.30;99.90;;;;;;5014828;28;20026;-74
2023/10/30 08:11:27;;;;;;;5.63;3.42;;;7.40;99.90;;;;;;5014566;28;20079;-73
2023/10/30 08:13:53;;;;;;;6.70;4.07;;;7.50;99.90;;;;;;5014928;28;20502;-74
2023/10/30 08:16:19;;;;;;;8.00;3.78;;;7.60;99.90;;;;;;5014620;28;20032;-74
2023/10/30 08:18:44;;;;;;;4.63;2.75;;;7.70;99.90;;;;;;5013930;28;20054;-74
2023/10/30 08:21:10;;;;;;;5.97;3.45;;;7.80;99.90;;;;;;5013156;28;20048;-74
2023/10/30 08:23:37;;;;;;;6.78;3.13;;;7.90;99.90;;;;;;5014513;28;20393;-73
2023/10/30 08:26:11;;;;;;;7.63;3.30;;;8.00;99.90;;;;;;5013430;28;20026;-73
2023/10/30 08:28:37;;;;;;;6.68;2.95;;;8.10;99.90;;;;;;5014785;28;20034;-74
2023/10/30 08:31:04;;;;;;;5.78;2.75;;;8.10;99.90;;;;;;5014606;28;20080;-74
2023/10/30 08:33:29;;;;;;;4.75;2.75;;;8.10;99.90;;;;;;5014692;28;20022;-73
2023/10/30 08:35:55;;;;;;;4.30;2.90;;;8.20;99.90;;;;;;5014742;28;20030;-75
2023/10/30 08:38:21;;;;;;;5.53;2.65;;;8.20;99.90;;;;;;5014592;28;20105;-75
2023/10/30 08:40:46;;;;;;;5.90;2.72;;;8.20;99.90;;;;;;5014603;28;20064;-74
2023/10/30 08:43:12;;;;;;;5.95;2.83;;;8.30;99.90;;;;;;5013218;28;20113;-75
2023/10/30 08:45:38;;;;;;;4.13;2.63;;;8.30;99.90;;;;;;5014136;28;20394;-74
2023/10/30 08:48:04;;;;;;;5.88;2.80;;;8.40;99.90;;;;;;5012879;28;20540;-74
2023/10/30 08:50:30;;;;;;;4.47;2.65;;;8.40;99.90;;;;;;5014186;28;20041;-74
2023/10/30 08:52:56;;;;;;;6.88;3.95;;;8.50;99.90;;;;;;5014282;28;20026;-73
2023/10/30 08:55:22;;;;;;;8.27;4.22;;;8.50;99.90;;;;;;5013949;28;20041;-73
2023/10/30 08:57:48;;;;;;;8.20;3.42;;;8.60;99.90;;;;;;5013707;28;20076;-74
2023/10/30 09:00:14;;;;;;;5.43;3.40;;;8.60;99.90;;;;;;5012891;28;20033;-74
2023/10/30 09:02:39;;;;;;;6.18;3.67;;;8.70;99.90;;;;;;5013876;28;20399;-73
2023/10/30 09:05:05;;;;;;;6.57;3.83;;;8.70;99.90;;;;;;5012842;28;20064;-73
2023/10/30 09:07:31;;;;;;;7.63;3.70;;;8.80;99.90;;;;;;5013553;28;20136;-73
2023/10/30 09:09:57;;;;;;;8.80;4.57;;;8.80;99.90;;;;;;5013597;28;20049;-73
2023/10/30 09:12:23;;;;;;;10.48;5.00;;;8.90;99.90;;;;;;5013719;28;20467;-73
2023/10/30 09:14:49;;;;;;;7.57;4.78;;;8.90;99.90;;;;;;5013655;28;20030;-74
2023/10/30 09:17:15;;;;;;;8.52;4.57;;;9.00;99.90;;;;;;5013648;28;20102;-74
2023/10/30 09:19:41;;;;;;;9.05;4.45;;;9.10;99.90;;;;;;5013615;28;20049;-73
2023/10/30 09:22:07;;;;;;;6.15;3.60;;;9.20;99.90;;;;;;5013569;28;20026;-73
2023/10/30 09:24:32;;;;;;;8.07;3.67;;;9.30;99.90;;;;;;5013334;28;20474;-72
2023/10/30 09:26:58;;;;;;;6.53;4.00;;;9.40;99.90;;;;;;5013582;28;20054;-74
2023/10/30 09:29:24;;;;;;;6.63;3.70;;;9.60;99.90;;;;;;5013577;28;20247;-74
2023/10/30 09:31:50;;;;;;;8.15;3.60;;;9.60;99.90;;;;;;5015136;28;20038;-74
2023/10/30 09:34:16;;;;;;;9.63;3.97;;;9.80;99.90;;;;;;5017581;28;20525;-74
2023/10/30 09:36:42;;;;;;;7.18;3.80;;;9.90;99.90;;;;;;5017230;28;20084;-74
2023/10/30 09:39:07;;;;;;;6.95;3.83;;;10.10;99.90;;;;;;5017691;28;20021;-74
2023/10/30 09:41:41;;;;;;;9.20;4.32;;;10.20;99.90;;;;;;5017481;28;20474;-74
2023/10/30 09:44:09;;;;;;;6.07;3.67;;;10.40;99.90;;;;;;5016230;28;20508;-74
2023/10/30 09:46:38;;;;;;;6.15;2.97;;;10.50;99.90;;;;;;5028427;28;20029;-73
2023/10/30 09:49:04;;;;;;;6.50;3.70;;;10.60;99.90;;;;;;5037245;28;20038;-73
2023/10/30 09:51:31;;;;;;;5.78;3.03;;;10.70;99.90;;;;;;5036935;28;20033;-74
2023/10/30 09:54:01;;;;;;;7.38;3.00;;;10.70;99.90;;;;;;5037107;28;20018;-74
2023/10/30 09:56:28;;;;;;;6.20;2.92;;;10.80;99.90;;;;;;5036420;28;20021;-73
2023/10/30 09:58:54;;;;;;;6.38;3.22;;;10.90;99.90;;;;;;5035586;28;20116;-73
2023/10/30 10:01:20;;;;;;;4.18;2.60;;;11.00;99.90;;;;;;5036511;28;20105;-73
2023/10/30 10:03:46;;;;;;;9.95;3.40;;;11.10;99.90;;;;;;5035380;28;20029;-74
2023/10/30 10:06:12;;;;;;;7.10;3.47;;;11.10;99.90;;;;;;5034864;28;20037;-74
2023/10/30 10:08:41;;;;;;;7.00;3.40;;;11.20;99.90;;;;;;5036324;28;20381;-74
2023/10/30 10:11:07;;;;;;;6.50;3.10;;;11.20;99.90;;;;;;5035842;28;20413;-74
2023/10/30 10:13:34;;;;;;;6.43;3.17;;;11.30;99.90;;;;;;5036553;28;20033;-74
2023/10/30 10:16:02;;;;;;;7.35;3.30;;;11.40;99.90;;;;;;5036566;28;20381;-74
2023/10/30 10:18:35;;;;;;;4.30;2.95;;;11.40;99.90;;;;;;5036721;28;20081;-74
2023/10/30 10:21:11;;;;;;;5.95;3.13;;;11.50;99.90;;;;;;5036436;28;20032;-74
2023/10/30 10:23:38;;;;;;;4.57;3.05;;;11.60;99.90;;;;;;5035410;28;20025;-74
2023/10/30 10:26:14;;;;;;;4.65;3.38;;;11.70;99.90;;;;;;5036415;28;20026;-74
2023/10/30 10:28:47;;;;;;;7.50;2.80;;;11.70;99.90;;;;;;5036610;28;20486;-74
2023/10/30 10:31:14;;;;;;;5.78;3.08;;;11.80;99.90;;;;;;5036339;28;20034;-73
2023/10/30 10:33:39;;;;;;;8.13;3.65;;;11.90;99.90;;;;;;5036438;28;20037;-74
2023/10/30 10:36:06;;;;;;;6.50;3.50;;;12.00;99.90;;;;;;5036718;28;20059;-74
2023/10/30 10:38:32;;;;;;;11.50;4.07;;;12.10;99.90;;;;;;5035878;28;20064;-73
2023/10/30 10:40:58;;;;;;;10.93;4.70;;;12.20;99.90;;;;;;5035940;28;20065;-73
2023/10/30 10:43:29;;;;;;;10.60;5.30;;;12.40;99.90;;;;;;5034893;28;20056;-73
2023/10/30 10:45:56;;;;;;;7.85;3.47;;;12.50;99.90;;;;;;5036104;28;20028;-73
2023/10/30 10:48:25;;;;;;;6.05;2.08;;;12.60;99.90;;;;;;5036496;28;20091;-73
2023/10/30 10:50:53;;;;;;;7.68;4.68;;;12.60;99.90;;;;;;5035802;28;20049;-73
2023/10/30 10:53:19;;;;;;;13.55;5.15;;;12.80;99.90;;;;;;5035659;28;20021;-73
2023/10/30 10:55:48;;;;;;;9.43;4.93;;;12.90;99.90;;;;;;5035867;28;20075;-73
2023/10/30 10:58:17;;;;;;;11.52;4.32;;;12.90;99.90;;;;;;5035517;28;20033;-73
2023/10/30 11:00:52;;;;;;;8.93;4.10;;;13.00;99.90;;;;;;5035640;28;20026;-73
2023/10/30 11:03:19;;;;;;;4.88;2.80;;;13.10;99.90;;;;;;5035993;28;20108;-73
2023/10/30 11:05:47;;;;;;;5.55;3.45;;;13.20;99.90;;;;;;5035618;28;20026;-73
2023/10/30 11:08:13;;;;;;;4.97;3.20;;;13.30;99.90;;;;;;5035304;28;20096;-73
2023/10/30 11:10:46;;;;;;;7.28;2.85;;;13.30;99.90;;;;;;5035416;28;20108;-73
2023/10/30 11:13:30;;;;;;;5.85;2.28;;;13.50;99.90;;;;;;5035546;28;20471;-73
2023/10/30 11:16:30;;;;;;;2.85;1.60;;;13.60;99.90;;;;;;5035518;28;20087;-73
2023/10/30 11:19:00;;;;;;;3.42;1.85;;;13.70;99.90;;;;;;5035103;28;20479;-73
2023/10/30 11:21:27;;;;;;;2.00;1.13;;;13.90;99.90;;;;;;5035028;28;20104;-73
2023/10/30 11:23:59;;;;;;;6.63;1.45;;;14.00;99.90;;;;;;5035282;28;20031;-73
2023/10/30 11:26:38;;;;;;;5.80;1.67;;;14.00;99.90;;;;;;5035258;28;20029;-73
2023/10/30 11:29:21;;;;;;;3.45;1.75;;;14.20;99.90;;;;;;5035787;28;20091;-73
2023/10/30 11:32:00;;;;;;;3.13;1.80;;;14.30;99.90;;;;;;5035354;28;20021;-73
2023/10/30 11:34:38;;;;;;;3.83;2.45;;;14.40;99.90;;;;;;5035233;28;20026;-73
2023/10/30 11:37:12;;;;;;;3.45;1.98;;;14.50;99.90;;;;;;5035085;28;20362;-73
2023/10/30 11:39:39;;;;;;;3.35;1.90;;;14.70;99.90;;;;;;5035391;28;20017;-73
2023/10/30 11:42:39;;;;;;;4.80;2.30;;;14.70;99.90;;;;;;5035011;28;20021;-75
2023/10/30 11:45:26;;;;;;;3.50;1.85;;;14.90;99.90;;;;;;5034865;28;20152;-72
2023/10/30 11:48:08;;;;;;;3.35;1.92;;;14.90;99.90;;;;;;5035453;28;20037;-73
2023/10/30 11:50:42;;;;;;;4.18;2.17;;;15.00;99.90;;;;;;5034754;28;20036;-73
2023/10/30 11:53:09;;;;;;;3.22;1.55;;;15.00;99.90;;;;;;5034444;28;20021;-72
2023/10/30 11:55:36;;;;;;;6.68;2.20;;;15.00;99.90;;;;;;5034704;28;20439;-73
2023/10/30 11:58:03;;;;;;;3.88;2.17;;;15.00;99.90;;;;;;5034549;28;20037;-73
2023/10/30 12:00:30;;;;;;;4.35;1.60;;;15.00;99.90;;;;;;5034659;28;20026;-73
2023/10/30 12:02:55;;;;;;;3.38;1.50;;;15.00;99.90;;;;;;5034563;28;20103;-73
2023/10/30 12:05:24;;;;;;;7.28;1.80;;;15.00;99.90;;;;;;5034559;28;20517;-73
2023/10/30 12:07:49;;;;;;;8.55;1.40;;;15.00;99.90;;;;;;5034234;28;20021;-73
2023/10/30 12:10:15;;;;;;;2.17;1.10;;;15.10;99.90;;;;;;5034417;28;20117;-73
2023/10/30 12:12:41;;;;;;;8.02;2.20;;;15.10;99.90;;;;;;5034417;28;20029;-73
2023/10/30 12:15:07;;;;;;;4.00;1.95;;;15.10;99.90;;;;;;5034358;28;20033;-73
2023/10/30 12:17:33;;;;;;;4.65;1.90;;;15.10;99.90;;;;;;5034554;28;20025;-72
2023/10/30 12:19:59;;;;;;;2.88;1.60;;;15.00;99.90;;;;;;5034181;28;20099;-73
2023/10/30 12:22:25;;;;;;;2.50;1.58;;;15.00;99.90;;;;;;5034039;28;20033;-73
2023/10/30 12:24:50;;;;;;;2.40;1.38;;;14.90;99.90;;;;;;5034406;28;20033;-72
2023/10/30 12:27:20;;;;;;;7.05;2.22;;;14.90;99.90;;;;;;5034108;28;20029;-73
2023/10/30 12:29:46;;;;;;;3.63;1.77;;;14.80;99.90;;;;;;5034180;28;20048;-73
2023/10/30 12:32:12;;;;;;;4.47;1.85;;;14.70;99.90;;;;;;5034059;28;20482;-73
2023/10/30 12:34:38;;;;;;;8.93;2.00;;;14.60;99.90;;;;;;5033945;28;20021;-73
2023/10/30 12:37:20;;;;;;;6.90;2.00;;;14.50;99.90;;;;;;5033697;28;20063;-73
2023/10/30 12:40:07;;;;;;;5.82;2.13;;;14.50;99.90;;;;;;5033960;28;20059;-73
2023/10/30 12:42:35;;;;;;;3.20;1.50;;;14.40;99.90;;;;;;5034156;28;20028;-72
2023/10/30 12:45:06;;;;;;;5.05;1.30;;;14.40;99.90;;;;;;5032597;28;20032;-73
2023/10/30 12:47:32;;;;;;;4.28;1.30;;;14.30;99.90;;;;;;5033767;28;20029;-73
2023/10/30 12:49:58;;;;;;;2.90;1.30;;;14.20;99.90;;;;;;5033597;28;20073;-73
2023/10/30 12:52:24;;;;;;;3.05;1.10;;;14.20;99.90;;;;;;5033421;28;20034;-73